createdAt,value
2018-03-28T00:00:45.896Z,41.03
2018-03-28T00:01:45.934Z,41.2
2018-03-28T00:02:45.860Z,41.12
2018-03-28T00:03:45.833Z,41.1
2018-03-28T00:04:45.887Z,41.27
2018-03-28T00:05:46.118Z,41.13
2018-03-28T00:06:45.889Z,41.04
2018-03-28T00:07:45.855Z,41.24
2018-03-28T00:08:45.913Z,41.16
2018-03-28T00:09:45.908Z,41.09
2018-03-28T00:10:46.032Z,41.25
2018-03-28T00:11:45.930Z,41.15
2018-03-28T00:12:45.888Z,41.04
2018-03-28T00:13:45.867Z,41.28
2018-03-28T00:14:45.893Z,41.15
2018-03-28T00:15:45.930Z,41.08
2018-03-28T00:16:45.849Z,41.29
2018-03-28T00:17:45.874Z,41.16
2018-03-28T00:18:45.842Z,41.15
2018-03-28T00:19:45.891Z,41.3
2018-03-28T00:20:45.932Z,41.15
2018-03-28T00:21:46.345Z,41.1
2018-03-28T00:22:45.853Z,41.28
2018-03-28T00:23:45.864Z,41.14
2018-03-28T00:24:45.917Z,41.07
2018-03-28T00:25:45.857Z,41.29
2018-03-28T00:26:45.901Z,41.14
2018-03-28T00:27:45.946Z,41.1
2018-03-28T00:28:45.867Z,41.26
2018-03-28T00:29:45.866Z,41.17
2018-03-28T00:30:45.900Z,41.11
2018-03-28T00:31:45.874Z,41.27
2018-03-28T00:32:45.864Z,41.2
2018-03-28T00:33:45.885Z,41.12
2018-03-28T00:34:45.934Z,41.31
2018-03-28T00:35:45.889Z,41.2
2018-03-28T00:36:45.925Z,41.15
2018-03-28T00:37:45.867Z,41.26
2018-03-28T00:38:45.858Z,41.21
2018-03-28T00:39:45.842Z,41.1
2018-03-28T00:40:45.876Z,41.36
2018-03-28T00:41:45.890Z,41.21
2018-03-28T00:42:45.920Z,41.15
2018-03-28T00:43:45.868Z,41.35
2018-03-28T00:44:45.857Z,41.23
2018-03-28T00:45:45.848Z,41.16
2018-03-28T00:46:45.898Z,41.32
2018-03-28T00:47:45.858Z,41.24
2018-03-28T00:48:45.858Z,41.17
2018-03-28T00:49:45.845Z,41.35
2018-03-28T00:50:45.915Z,41.26
2018-03-28T00:51:45.859Z,41.13
2018-03-28T00:52:45.860Z,41.36
2018-03-28T00:53:45.902Z,41.26
2018-03-28T00:54:45.845Z,41.18
2018-03-28T00:55:45.854Z,41.37
2018-03-28T00:56:45.879Z,41.25
2018-03-28T00:57:45.885Z,41.16
2018-03-28T00:58:45.840Z,41.29
2018-03-28T00:59:45.832Z,41.21
2018-03-28T01:00:45.869Z,41.12
2018-03-28T01:01:45.838Z,41.33
2018-03-28T01:02:45.896Z,41.25
2018-03-28T01:03:45.847Z,41.13
2018-03-28T01:04:45.848Z,41.36
2018-03-28T01:05:45.872Z,41.23
2018-03-28T01:06:45.861Z,41.16
2018-03-28T01:07:45.874Z,41.29
2018-03-28T01:08:45.832Z,41.26
2018-03-28T01:09:45.868Z,41.21
2018-03-28T01:10:45.833Z,41.38
2018-03-28T01:11:45.911Z,41.22
2018-03-28T01:12:45.860Z,41.19
2018-03-28T01:13:45.900Z,41.37
2018-03-28T01:14:45.843Z,41.27
2018-03-28T01:15:45.857Z,41.17
2018-03-28T01:16:45.854Z,41.41
2018-03-28T01:17:45.854Z,41.25
2018-03-28T01:18:46.135Z,41.19
2018-03-28T01:19:45.842Z,41.35
2018-03-28T01:20:45.838Z,41.25
2018-03-28T01:21:45.852Z,41.19
2018-03-28T01:22:45.856Z,41.34
2018-03-28T01:23:45.847Z,41.29
2018-03-28T01:24:45.944Z,41.24
2018-03-28T01:25:45.835Z,41.35
2018-03-28T01:26:45.841Z,41.29
2018-03-28T01:27:45.818Z,41.19
2018-03-28T01:28:45.882Z,41.36
2018-03-28T01:29:45.834Z,41.24
2018-03-28T01:30:45.857Z,41.19
2018-03-28T01:31:45.830Z,41.35
2018-03-28T01:32:45.849Z,41.32
2018-03-28T01:33:45.834Z,41.21
2018-03-28T01:34:45.834Z,41.35
2018-03-28T01:35:45.869Z,41.28
2018-03-28T01:36:45.834Z,41.21
2018-03-28T01:37:45.832Z,41.38
2018-03-28T01:38:45.840Z,41.29
2018-03-28T01:39:45.879Z,41.17
2018-03-28T01:40:45.849Z,41.38
2018-03-28T01:41:45.837Z,41.25
2018-03-28T01:42:45.808Z,41.21
2018-03-28T01:43:45.813Z,41.36
2018-03-28T01:44:45.874Z,41.32
2018-03-28T01:45:45.847Z,41.25
2018-03-28T01:46:45.833Z,41.41
2018-03-28T01:47:45.823Z,41.31
2018-03-28T01:48:45.883Z,41.23
2018-03-28T01:49:45.838Z,41.4
2018-03-28T01:50:45.853Z,41.32
2018-03-28T01:51:45.939Z,41.3
2018-03-28T01:52:45.930Z,41.46
2018-03-28T01:53:45.858Z,41.4
2018-03-28T01:54:45.813Z,41.32
2018-03-28T01:55:45.898Z,41.45
2018-03-28T01:56:45.830Z,41.38
2018-03-28T01:57:45.843Z,41.25
2018-03-28T01:58:45.846Z,41.43
2018-03-28T01:59:45.814Z,41.38
2018-03-28T02:00:45.812Z,41.28
2018-03-28T02:01:45.822Z,41.48
2018-03-28T02:02:45.850Z,41.36
2018-03-28T02:03:45.841Z,41.34
2018-03-28T02:04:45.834Z,41.48
2018-03-28T02:05:45.850Z,41.43
2018-03-28T02:06:45.854Z,41.32
2018-03-28T02:07:45.828Z,41.48
2018-03-28T02:08:45.821Z,41.4
2018-03-28T02:09:45.857Z,41.31
2018-03-28T02:10:45.861Z,41.48
2018-03-28T02:11:45.861Z,41.39
2018-03-28T02:12:45.845Z,41.33
2018-03-28T02:13:45.846Z,41.47
2018-03-28T02:14:45.819Z,41.39
2018-03-28T02:15:45.978Z,41.33
2018-03-28T02:16:45.828Z,41.5
2018-03-28T02:17:45.852Z,41.38
2018-03-28T02:18:45.864Z,41.34
2018-03-28T02:19:45.837Z,41.47
2018-03-28T02:20:45.822Z,41.36
2018-03-28T02:21:45.847Z,41.32
2018-03-28T02:22:45.852Z,41.51
2018-03-28T02:23:45.820Z,41.41
2018-03-28T02:24:45.867Z,41.32
2018-03-28T02:25:45.846Z,41.45
2018-03-28T02:26:45.808Z,41.44
2018-03-28T02:27:45.810Z,41.32
2018-03-28T02:28:45.807Z,41.45
2018-03-28T02:29:45.816Z,41.44
2018-03-28T02:30:45.867Z,41.32
2018-03-28T02:31:45.846Z,41.52
2018-03-28T02:32:45.877Z,41.38
2018-03-28T02:33:45.845Z,41.36
2018-03-28T02:34:45.821Z,41.51
2018-03-28T02:35:45.845Z,41.42
2018-03-28T02:36:45.806Z,41.33
2018-03-28T02:37:45.880Z,41.47
2018-03-28T02:38:45.866Z,41.37
2018-03-28T02:39:45.827Z,41.31
2018-03-28T02:40:45.845Z,41.48
2018-03-28T02:41:45.805Z,41.37
2018-03-28T02:42:45.847Z,41.33
2018-03-28T02:43:45.862Z,41.54
2018-03-28T02:44:45.835Z,41.42
2018-03-28T02:45:45.824Z,41.32
2018-03-28T02:46:45.974Z,41.47
2018-03-28T02:47:45.797Z,41.39
2018-03-28T02:48:45.817Z,41.29
2018-03-28T02:49:45.867Z,41.49
2018-03-28T02:50:45.862Z,41.43
2018-03-28T02:51:45.874Z,41.36
2018-03-28T02:52:45.826Z,41.45
2018-03-28T02:53:45.872Z,41.44
2018-03-28T02:54:45.828Z,41.33
2018-03-28T02:55:45.908Z,41.48
2018-03-28T02:56:45.836Z,41.42
2018-03-28T02:57:45.809Z,41.35
2018-03-28T02:58:45.827Z,41.49
2018-03-28T02:59:45.803Z,41.42
2018-03-28T03:00:45.818Z,41.37
2018-03-28T03:01:45.991Z,41.53
2018-03-28T03:02:45.828Z,41.45
2018-03-28T03:03:45.833Z,41.38
2018-03-28T03:04:45.880Z,41.5
2018-03-28T03:05:45.795Z,41.44
2018-03-28T03:06:45.866Z,41.38
2018-03-28T03:07:45.842Z,41.46
2018-03-28T03:08:45.838Z,41.43
2018-03-28T03:09:45.813Z,41.33
2018-03-28T03:10:45.793Z,41.48
2018-03-28T03:11:45.808Z,41.44
2018-03-28T03:12:45.825Z,41.3
2018-03-28T03:13:46.207Z,41.5
2018-03-28T03:14:45.818Z,41.44
2018-03-28T03:15:45.796Z,41.33
2018-03-28T03:16:45.854Z,41.46
2018-03-28T03:17:45.835Z,41.44
2018-03-28T03:18:45.796Z,41.35
2018-03-28T03:19:45.809Z,41.5
2018-03-28T03:20:45.823Z,41.44
2018-03-28T03:21:45.794Z,41.35
2018-03-28T03:22:45.808Z,41.5
2018-03-28T03:23:45.843Z,41.43
2018-03-28T03:24:45.815Z,41.28
2018-03-28T03:25:45.795Z,41.51
2018-03-28T03:26:45.801Z,41.44
2018-03-28T03:27:45.803Z,41.39
2018-03-28T03:28:45.803Z,41.54
2018-03-28T03:29:45.813Z,41.44
2018-03-28T03:30:45.810Z,41.37
2018-03-28T03:31:45.825Z,41.51
2018-03-28T03:32:45.819Z,41.41
2018-03-28T03:33:45.793Z,41.34
2018-03-28T03:34:45.842Z,41.47
2018-03-28T03:35:45.800Z,41.45
2018-03-28T03:36:45.794Z,41.31
2018-03-28T03:37:45.817Z,41.5
2018-03-28T03:38:45.797Z,41.47
2018-03-28T03:39:45.805Z,41.36
2018-03-28T03:40:45.792Z,41.53
2018-03-28T03:41:45.801Z,41.41
2018-03-28T03:42:45.790Z,41.35
2018-03-28T03:43:45.838Z,41.52
2018-03-28T03:44:45.795Z,41.43
2018-03-28T03:45:45.762Z,41.35
2018-03-28T03:46:45.787Z,41.56
2018-03-28T03:47:45.855Z,41.49
2018-03-28T03:48:45.792Z,41.43
2018-03-28T03:49:45.815Z,41.56
2018-03-28T03:50:45.848Z,41.54
2018-03-28T03:51:45.765Z,41.46
2018-03-28T03:52:45.976Z,41.6
2018-03-28T03:53:45.967Z,41.55
2018-03-28T03:54:45.799Z,41.43
2018-03-28T03:55:45.798Z,41.59
2018-03-28T03:56:45.785Z,41.53
2018-03-28T03:57:45.761Z,41.37
2018-03-28T03:58:46.289Z,41.59
2018-03-28T03:59:45.787Z,41.46
2018-03-28T04:00:45.780Z,41.38
2018-03-28T04:01:45.814Z,41.47
2018-03-28T04:02:45.782Z,41.46
2018-03-28T04:03:45.790Z,41.37
2018-03-28T04:04:45.793Z,41.51
2018-03-28T04:05:45.860Z,41.47
2018-03-28T04:06:45.780Z,41.35
2018-03-28T04:07:45.769Z,41.48
2018-03-28T04:08:45.790Z,41.48
2018-03-28T04:09:45.799Z,41.39
2018-03-28T04:10:45.765Z,41.49
2018-03-28T04:11:45.775Z,41.37
2018-03-28T04:12:45.763Z,41.4
2018-03-28T04:13:45.776Z,41.47
2018-03-28T04:14:45.780Z,41.4
2018-03-28T04:15:45.825Z,41.38
2018-03-28T04:16:45.775Z,41.36
2018-03-28T04:17:45.795Z,41.32
2018-03-28T04:18:45.845Z,41.28
2018-03-28T04:19:45.765Z,41.27
2018-03-28T04:20:45.788Z,41.22
2018-03-28T04:21:45.914Z,41.2
2018-03-28T04:22:45.786Z,41.32
2018-03-28T04:23:45.774Z,41.21
2018-03-28T04:24:45.815Z,41.15
2018-03-28T04:25:45.772Z,41.17
2018-03-28T04:26:46.022Z,41.17
2018-03-28T04:27:45.809Z,41.12
2018-03-28T04:28:45.869Z,41.18
2018-03-28T04:29:45.793Z,41.17
2018-03-28T04:30:45.781Z,41.13
2018-03-28T04:31:45.811Z,41.16
2018-03-28T04:32:45.789Z,41.22
2018-03-28T04:33:45.808Z,41.19
2018-03-28T04:34:45.798Z,41.22
2018-03-28T04:35:45.759Z,41.12
2018-03-28T04:36:45.801Z,41.22
2018-03-28T04:37:45.839Z,41.15
2018-03-28T04:38:45.784Z,41.18
2018-03-28T04:39:45.817Z,41.18
2018-03-28T04:40:45.810Z,41.21
2018-03-28T04:41:45.802Z,41.15
2018-03-28T04:42:45.843Z,41.19
2018-03-28T04:43:46.375Z,41.19
2018-03-28T04:44:45.777Z,41.28
2018-03-28T04:45:45.796Z,41.18
2018-03-28T04:46:45.776Z,41.15
2018-03-28T04:47:45.766Z,41.24
2018-03-28T04:48:45.761Z,41.14
2018-03-28T04:49:45.822Z,41.18
2018-03-28T04:50:45.946Z,41.2
2018-03-28T04:51:45.781Z,41.23
2018-03-28T04:52:45.805Z,41.13
2018-03-28T04:53:45.840Z,41.27
2018-03-28T04:54:45.763Z,41.17
2018-03-28T04:55:46.292Z,41.25
2018-03-28T04:56:45.768Z,41.15
2018-03-28T04:57:45.760Z,41.22
2018-03-28T04:58:45.793Z,41.16
2018-03-28T04:59:45.772Z,41.12
2018-03-28T05:00:45.800Z,41.26
2018-03-28T05:01:45.774Z,41.24
2018-03-28T05:02:45.763Z,41.23
2018-03-28T05:03:45.761Z,41.23
2018-03-28T05:04:45.759Z,41.17
2018-03-28T05:05:45.799Z,41.24
2018-03-28T05:06:45.775Z,41.1
2018-03-28T05:07:45.775Z,41.16
2018-03-28T05:08:45.808Z,41.21
2018-03-28T05:09:45.790Z,41.19
2018-03-28T05:10:45.757Z,41.19
2018-03-28T05:11:45.778Z,41.22
2018-03-28T05:12:45.784Z,41.1
2018-03-28T05:13:45.796Z,41.17
2018-03-28T05:14:45.772Z,41.2
2018-03-28T05:15:46.782Z,41.11
2018-03-28T05:16:45.758Z,41.21
2018-03-28T05:17:45.760Z,41.18
2018-03-28T05:18:45.754Z,41.16
2018-03-28T05:19:45.758Z,41.21
2018-03-28T05:20:45.812Z,41.19
2018-03-28T05:21:45.736Z,41.04
2018-03-28T05:22:46.407Z,41.2
2018-03-28T05:23:45.780Z,41.15
2018-03-28T05:24:45.765Z,41.18
2018-03-28T05:25:45.781Z,41.21
2018-03-28T05:26:45.758Z,41.24
2018-03-28T05:27:45.771Z,41.14
2018-03-28T05:28:45.819Z,41.18
2018-03-28T05:29:45.747Z,41.21
2018-03-28T05:30:45.819Z,41.12
2018-03-28T05:31:45.771Z,41.2
2018-03-28T05:32:45.754Z,41.21
2018-03-28T05:33:45.736Z,41.18
2018-03-28T05:34:45.767Z,41.16
2018-03-28T05:35:45.772Z,41.15
2018-03-28T05:36:45.756Z,41.17
2018-03-28T05:37:45.775Z,41.11
2018-03-28T05:38:45.754Z,41.16
2018-03-28T05:39:45.735Z,41.08
2018-03-28T05:40:46.030Z,41.17
2018-03-28T05:41:45.774Z,41.03
2018-03-28T05:42:45.995Z,41.17
2018-03-28T05:43:45.749Z,41.13
2018-03-28T05:44:45.756Z,41.09
2018-03-28T05:45:45.763Z,41.08
2018-03-28T05:46:45.756Z,41.08
2018-03-28T05:47:45.752Z,41.09
2018-03-28T05:48:45.776Z,41.14
2018-03-28T05:49:46.044Z,41.08
2018-03-28T05:50:45.743Z,40.99
2018-03-28T05:51:45.855Z,41.08
2018-03-28T05:52:45.751Z,41.07
2018-03-28T05:53:45.867Z,41.09
2018-03-28T05:54:45.876Z,41.02
2018-03-28T05:55:45.743Z,41.02
2018-03-28T05:56:45.778Z,41.04
2018-03-28T05:57:45.776Z,41.07
2018-03-28T05:58:45.746Z,41.01
2018-03-28T05:59:45.764Z,41.06
2018-03-28T06:00:45.809Z,41.07
2018-03-28T06:01:45.770Z,40.99
2018-03-28T06:02:45.746Z,41.05
2018-03-28T06:03:45.753Z,40.97
2018-03-28T06:04:45.741Z,40.99
2018-03-28T06:05:45.765Z,41.04
2018-03-28T06:06:45.782Z,41.01
2018-03-28T06:07:45.727Z,40.98
2018-03-28T06:08:45.749Z,41
2018-03-28T06:09:45.761Z,41.74
2018-03-28T06:10:45.763Z,41.54
2018-03-28T06:11:45.828Z,41.1
2018-03-28T06:12:45.799Z,41.32
2018-03-28T06:13:45.775Z,41.39
2018-03-28T06:14:45.748Z,41.24
2018-03-28T06:15:45.774Z,41.29
2018-03-28T06:16:45.789Z,41.38
2018-03-28T06:17:45.811Z,41.28
2018-03-28T06:18:45.754Z,41.38
2018-03-28T06:19:45.741Z,41.32
2018-03-28T06:20:45.737Z,41.32
2018-03-28T06:21:45.805Z,41.28
2018-03-28T06:22:45.799Z,41.33
2018-03-28T06:23:45.742Z,41.25
2018-03-28T06:24:45.773Z,41.24
2018-03-28T06:25:45.756Z,41.24
2018-03-28T06:26:45.778Z,41.19
2018-03-28T06:27:45.738Z,41.2
2018-03-28T06:28:45.748Z,41.24
2018-03-28T06:29:45.736Z,41.14
2018-03-28T06:30:45.750Z,41.21
2018-03-28T06:31:45.772Z,41.18
2018-03-28T06:32:45.749Z,41.14
2018-03-28T06:33:45.753Z,41.17
2018-03-28T06:34:45.761Z,41.1
2018-03-28T06:35:45.724Z,41.14
2018-03-28T06:36:45.762Z,41.1
2018-03-28T06:37:45.738Z,41.12
2018-03-28T06:38:45.724Z,41.12
2018-03-28T06:39:45.740Z,41.13
2018-03-28T06:40:45.729Z,41.09
2018-03-28T06:41:45.779Z,41.12
2018-03-28T06:42:45.712Z,41.08
2018-03-28T06:43:45.737Z,41.1
2018-03-28T06:44:45.738Z,41.04
2018-03-28T06:45:45.787Z,41.12
2018-03-28T06:46:45.956Z,41.08
2018-03-28T06:47:45.716Z,41.03
2018-03-28T06:48:45.775Z,41
2018-03-28T06:49:45.731Z,41.03
2018-03-28T06:50:45.736Z,41.06
2018-03-28T06:51:45.749Z,41.05
2018-03-28T06:52:45.723Z,41.05
2018-03-28T06:53:45.790Z,41
2018-03-28T06:54:45.739Z,41.01
2018-03-28T06:55:45.715Z,41.02
2018-03-28T06:56:45.767Z,40.99
2018-03-28T06:57:45.756Z,41
2018-03-28T06:58:45.740Z,41.01
2018-03-28T06:59:46.139Z,41.01
2018-03-28T07:00:45.720Z,41.01
2018-03-28T07:01:45.734Z,41.01
2018-03-28T07:02:45.717Z,40.98
2018-03-28T07:03:45.746Z,41.02
2018-03-28T07:04:45.765Z,40.95
2018-03-28T07:05:45.740Z,40.96
2018-03-28T07:06:45.721Z,40.87
2018-03-28T07:07:45.735Z,41.06
2018-03-28T07:08:45.748Z,41.13
2018-03-28T07:09:45.711Z,41.13
2018-03-28T07:10:45.790Z,41.63
2018-03-28T07:11:45.719Z,41.38
2018-03-28T07:12:45.799Z,41.05
2018-03-28T07:13:45.709Z,41.21
2018-03-28T07:14:45.768Z,41.17
2018-03-28T07:15:45.793Z,41.2
2018-03-28T07:16:45.727Z,41.2
2018-03-28T07:17:45.721Z,41.11
2018-03-28T07:18:45.720Z,40.99
2018-03-28T07:19:45.853Z,41.11
2018-03-28T07:20:46.392Z,41.07
2018-03-28T07:21:45.733Z,41.2
2018-03-28T07:22:45.784Z,41.43
2018-03-28T07:23:45.713Z,41.27
2018-03-28T07:24:45.828Z,41.05
2018-03-28T07:25:45.720Z,41.26
2018-03-28T07:26:45.742Z,41.16
2018-03-28T07:27:46.179Z,41.18
2018-03-28T07:28:45.723Z,41.39
2018-03-28T07:29:45.743Z,41.23
2018-03-28T07:30:45.714Z,41.31
2018-03-28T07:31:45.762Z,41.55
2018-03-28T07:32:45.782Z,41.48
2018-03-28T07:33:45.723Z,41.38
2018-03-28T07:34:45.693Z,41.62
2018-03-28T07:35:45.705Z,41.5
2018-03-28T07:36:45.731Z,41.59
2018-03-28T07:37:45.727Z,41.7
2018-03-28T07:38:45.727Z,41.62
2018-03-28T07:39:45.995Z,41.59
2018-03-28T07:40:45.702Z,41.68
2018-03-28T07:41:45.730Z,41.54
2018-03-28T07:42:45.723Z,41.25
2018-03-28T07:43:45.782Z,41.3
2018-03-28T07:44:45.744Z,41.1
2018-03-28T07:45:45.722Z,41.04
2018-03-28T07:46:45.711Z,41
2018-03-28T07:47:45.715Z,40.99
2018-03-28T07:48:45.704Z,41.46
2018-03-28T07:49:45.734Z,41.72
2018-03-28T07:50:45.719Z,41.78
2018-03-28T07:51:45.744Z,41.84
2018-03-28T07:52:45.716Z,42.11
2018-03-28T07:53:45.761Z,42.08
2018-03-28T07:54:45.932Z,42.15
2018-03-28T07:55:45.913Z,42.12
2018-03-28T07:56:45.699Z,42.32
2018-03-28T07:57:45.747Z,42.23
2018-03-28T07:58:45.730Z,42.46
2018-03-28T07:59:45.761Z,42.24
2018-03-28T08:00:45.710Z,42.26
2018-03-28T08:01:45.730Z,42.43
2018-03-28T08:02:45.761Z,42.33
2018-03-28T08:03:45.732Z,41.54
2018-03-28T08:04:45.747Z,41.5
2018-03-28T08:05:45.726Z,41.96
2018-03-28T08:06:45.724Z,41.86
2018-03-28T08:07:45.706Z,41.34
2018-03-28T08:08:45.712Z,41.3
2018-03-28T08:09:45.740Z,41.2
2018-03-28T08:10:45.718Z,41.42
2018-03-28T08:11:45.730Z,41.16
2018-03-28T08:12:45.724Z,41.18
2018-03-28T08:13:45.708Z,41.06
2018-03-28T08:14:45.712Z,41.12
2018-03-28T08:15:45.734Z,41.4
2018-03-28T08:16:45.720Z,41.96
2018-03-28T08:17:45.709Z,41.78
2018-03-28T08:18:45.700Z,41.87
2018-03-28T08:19:45.758Z,41.77
2018-03-28T08:20:45.706Z,41.64
2018-03-28T08:21:45.708Z,41.63
2018-03-28T08:22:45.708Z,41.52
2018-03-28T08:23:45.698Z,41.79
2018-03-28T08:24:45.703Z,41.74
2018-03-28T08:25:46.257Z,41.63
2018-03-28T08:26:45.738Z,41.88
2018-03-28T08:27:45.732Z,41.65
2018-03-28T08:28:45.710Z,41.85
2018-03-28T08:29:45.694Z,41.79
2018-03-28T08:30:45.727Z,41.42
2018-03-28T08:31:45.696Z,41.37
2018-03-28T08:32:45.706Z,41.82
2018-03-28T08:33:45.688Z,41.58
2018-03-28T08:34:45.710Z,41.79
2018-03-28T08:35:45.747Z,42.24
2018-03-28T08:36:45.699Z,41.95
2018-03-28T08:37:45.694Z,41.84
2018-03-28T08:38:45.690Z,42.72
2018-03-28T08:39:45.737Z,41.72
2018-03-28T08:40:45.725Z,41.7
2018-03-28T08:41:45.699Z,41.66
2018-03-28T08:42:45.719Z,41.58
2018-03-28T08:43:45.683Z,41.5
2018-03-28T08:44:45.697Z,41.33
2018-03-28T08:45:45.710Z,41.23
2018-03-28T08:46:45.704Z,41.18
2018-03-28T08:47:45.703Z,41.14
2018-03-28T08:48:45.688Z,41.23
2018-03-28T08:49:46.497Z,41.13
2018-03-28T08:50:45.734Z,41.63
2018-03-28T08:51:45.702Z,41.85
2018-03-28T08:52:45.697Z,41.87
2018-03-28T08:53:45.752Z,41.89
2018-03-28T08:54:45.724Z,41.92
2018-03-28T08:55:45.699Z,41.96
2018-03-28T08:56:46.086Z,41.69
2018-03-28T08:57:45.689Z,41.55
2018-03-28T08:58:45.717Z,41.55
2018-03-28T08:59:45.712Z,41.17
2018-03-28T09:00:46.072Z,40.59
2018-03-28T09:01:45.735Z,40.46
2018-03-28T09:02:45.765Z,41.61
2018-03-28T09:03:45.699Z,41.62
2018-03-28T09:04:45.950Z,41.58
2018-03-28T09:05:45.714Z,41.73
2018-03-28T09:06:45.896Z,41.44
2018-03-28T09:07:45.701Z,41.24
2018-03-28T09:08:45.709Z,41.56
2018-03-28T09:09:45.728Z,41.07
2018-03-28T09:10:45.773Z,41.05
2018-03-28T09:11:45.861Z,41.07
2018-03-28T09:12:45.702Z,41.06
2018-03-28T09:13:45.862Z,41.43
2018-03-28T09:14:45.695Z,41.97
2018-03-28T09:15:45.802Z,41.64
2018-03-28T09:16:45.727Z,41.5
2018-03-28T09:17:45.687Z,41.26
2018-03-28T09:18:45.706Z,41.18
2018-03-28T09:19:45.677Z,41.51
2018-03-28T09:20:46.309Z,41.18
2018-03-28T09:21:45.704Z,41
2018-03-28T09:22:45.709Z,40.84
2018-03-28T09:23:45.710Z,40.84
2018-03-28T09:24:45.686Z,40.9
2018-03-28T09:25:45.692Z,40.9
2018-03-28T09:26:45.705Z,40.85
2018-03-28T09:27:45.759Z,40.8
2018-03-28T09:28:45.713Z,40.94
2018-03-28T09:29:45.688Z,41.01
2018-03-28T09:30:45.690Z,41.34
2018-03-28T09:31:45.786Z,41.28
2018-03-28T09:32:45.829Z,41.11
2018-03-28T09:33:46.315Z,41.28
2018-03-28T09:34:45.686Z,41.03
2018-03-28T09:35:45.692Z,40.94
2018-03-28T09:36:46.011Z,41.49
2018-03-28T09:37:45.704Z,41.23
2018-03-28T09:38:45.683Z,40.95
2018-03-28T09:39:45.664Z,41.09
2018-03-28T09:40:45.889Z,41.01
2018-03-28T09:41:45.758Z,40.92
2018-03-28T09:42:46.065Z,41.11
2018-03-28T09:43:45.680Z,40.89
2018-03-28T09:44:45.698Z,40.71
2018-03-28T09:45:45.688Z,40.8
2018-03-28T09:46:45.722Z,40.71
2018-03-28T09:47:45.710Z,40.69
2018-03-28T09:48:45.671Z,40.47
2018-03-28T09:49:45.677Z,40.58
2018-03-28T09:50:45.681Z,40.42
2018-03-28T09:51:45.727Z,40.84
2018-03-28T09:52:45.685Z,41.38
2018-03-28T09:53:45.688Z,40.61
2018-03-28T09:54:45.719Z,41.13
2018-03-28T09:55:45.789Z,40.96
2018-03-28T09:56:45.820Z,40.92
2018-03-28T09:57:45.707Z,40.97
2018-03-28T09:58:45.752Z,40.79
2018-03-28T09:59:45.662Z,40.9
2018-03-28T10:00:45.715Z,40.84
2018-03-28T10:01:45.701Z,40.68
2018-03-28T10:02:45.667Z,40.9
2018-03-28T10:03:45.685Z,41.11
2018-03-28T10:04:45.669Z,40.81
2018-03-28T10:05:45.746Z,41.03
2018-03-28T10:06:45.764Z,41.07
2018-03-28T10:07:45.719Z,40.72
2018-03-28T10:08:45.666Z,40.67
2018-03-28T10:09:45.770Z,41
2018-03-28T10:10:45.746Z,40.77
2018-03-28T10:11:45.726Z,40.91
2018-03-28T10:12:45.687Z,40.81
2018-03-28T10:13:45.684Z,40.7
2018-03-28T10:14:45.699Z,40.73
2018-03-28T10:15:45.798Z,40.98
2018-03-28T10:16:45.688Z,40.73
2018-03-28T10:17:45.723Z,40.94
2018-03-28T10:18:45.751Z,40.72
2018-03-28T10:19:45.761Z,40.73
2018-03-28T10:20:45.674Z,40.83
2018-03-28T10:21:45.699Z,40.72
2018-03-28T10:22:45.686Z,40.75
2018-03-28T10:23:45.711Z,40.81
2018-03-28T10:24:45.735Z,40.95
2018-03-28T10:25:45.679Z,40.94
2018-03-28T10:26:45.675Z,40.9
2018-03-28T10:27:45.673Z,40.94
2018-03-28T10:28:45.904Z,40.88
2018-03-28T10:29:45.719Z,40.94
2018-03-28T10:30:45.691Z,40.74
2018-03-28T10:31:45.729Z,40.88
2018-03-28T10:32:45.701Z,40.83
2018-03-28T10:33:45.756Z,40.84
2018-03-28T10:34:45.692Z,40.98
2018-03-28T10:35:45.677Z,40.89
2018-03-28T10:36:45.730Z,40.89
2018-03-28T10:37:45.685Z,41.03
2018-03-28T10:38:45.699Z,40.9
2018-03-28T10:39:45.715Z,40.8
2018-03-28T10:40:45.705Z,40.87
2018-03-28T10:41:45.755Z,40.92
2018-03-28T10:42:45.687Z,40.84
2018-03-28T10:43:45.688Z,41.04
2018-03-28T10:44:45.693Z,40.79
2018-03-28T10:45:45.719Z,40.41
2018-03-28T10:46:45.649Z,39.98
2018-03-28T10:47:45.714Z,40.35
2018-03-28T10:48:45.904Z,40.56
2018-03-28T10:49:45.662Z,40.63
2018-03-28T10:50:45.689Z,40.61
2018-03-28T10:51:45.703Z,40.73
2018-03-28T10:52:45.693Z,40.75
2018-03-28T10:53:45.714Z,40.57
2018-03-28T10:54:45.711Z,40.48
2018-03-28T10:55:45.668Z,40.67
2018-03-28T10:56:45.655Z,40.63
2018-03-28T10:57:45.724Z,40.63
2018-03-28T10:58:45.687Z,40.66
2018-03-28T10:59:45.758Z,40.67
2018-03-28T11:00:45.654Z,40.53
2018-03-28T11:01:45.713Z,40.71
2018-03-28T11:02:45.727Z,40.65
2018-03-28T11:03:45.794Z,40.59
2018-03-28T11:04:45.992Z,40.63
2018-03-28T11:05:45.650Z,40.84
2018-03-28T11:06:45.635Z,41.04
2018-03-28T11:07:45.879Z,41.06
2018-03-28T11:08:45.701Z,41.43
2018-03-28T11:09:45.690Z,41.16
2018-03-28T11:10:45.693Z,41.91
2018-03-28T11:11:45.639Z,41.68
2018-03-28T11:12:45.699Z,42.45
2018-03-28T11:13:45.664Z,41.06
2018-03-28T11:14:45.746Z,40.53
2018-03-28T11:15:45.649Z,40.9
2018-03-28T11:16:45.657Z,41.09
2018-03-28T11:17:45.643Z,40.88
2018-03-28T11:18:45.649Z,40.81
2018-03-28T11:19:45.899Z,40.74
2018-03-28T11:20:46.055Z,40.84
2018-03-28T11:21:45.787Z,40.73
2018-03-28T11:22:45.698Z,40.76
2018-03-28T11:23:45.744Z,40.73
2018-03-28T11:24:45.677Z,40.84
2018-03-28T11:25:45.712Z,40.74
2018-03-28T11:26:45.673Z,40.72
2018-03-28T11:27:45.715Z,40.73
2018-03-28T11:28:45.686Z,40.74
2018-03-28T11:29:45.905Z,40.74
2018-03-28T11:30:45.855Z,40.74
2018-03-28T11:31:45.745Z,40.74
2018-03-28T11:32:45.692Z,40.69
2018-03-28T11:33:45.713Z,40.69
2018-03-28T11:34:45.694Z,40.78
2018-03-28T11:35:45.638Z,40.77
2018-03-28T11:36:45.675Z,40.76
2018-03-28T11:37:45.651Z,40.74
2018-03-28T11:38:45.684Z,40.74
2018-03-28T11:39:45.608Z,40.73
2018-03-28T11:40:45.672Z,40.73
2018-03-28T11:41:45.705Z,40.72
2018-03-28T11:42:45.630Z,40.67
2018-03-28T11:43:45.671Z,40.77
2018-03-28T11:44:45.634Z,40.88
2018-03-28T11:45:45.664Z,40.88
2018-03-28T11:46:45.677Z,41.02
2018-03-28T11:47:45.652Z,40.93
2018-03-28T11:48:45.754Z,40.93
2018-03-28T11:49:45.710Z,40.92
2018-03-28T11:50:45.672Z,40.84
2018-03-28T11:51:45.654Z,40.85
2018-03-28T11:52:45.641Z,40.98
2018-03-28T11:53:45.646Z,40.9
2018-03-28T11:54:45.663Z,40.88
2018-03-28T11:55:45.640Z,40.98
2018-03-28T11:56:45.737Z,40.89
2018-03-28T11:57:45.720Z,40.88
2018-03-28T11:58:45.654Z,41.16
2018-03-28T11:59:45.666Z,40.93
2018-03-28T12:00:45.688Z,41.08
2018-03-28T12:01:45.661Z,41.26
2018-03-28T12:02:45.701Z,41.24
2018-03-28T12:03:45.625Z,41.27
2018-03-28T12:04:45.978Z,41.46
2018-03-28T12:05:45.645Z,41.31
2018-03-28T12:06:45.644Z,41.32
2018-03-28T12:07:45.637Z,41.38
2018-03-28T12:08:45.646Z,41.41
2018-03-28T12:09:45.691Z,40.83
2018-03-28T12:10:45.662Z,40.66
2018-03-28T12:11:45.742Z,40.4
2018-03-28T12:12:45.630Z,40.27
2018-03-28T12:13:45.674Z,40.72
2018-03-28T12:14:45.841Z,40.64
2018-03-28T12:15:45.632Z,40.77
2018-03-28T12:16:45.667Z,40.11
2018-03-28T12:17:45.642Z,40.31
2018-03-28T12:18:45.816Z,40.44
2018-03-28T12:19:45.718Z,40.63
2018-03-28T12:20:45.675Z,40.52
2018-03-28T12:21:45.648Z,40.95
2018-03-28T12:22:45.650Z,40.9
2018-03-28T12:23:45.680Z,40.86
2018-03-28T12:24:45.651Z,41.1
2018-03-28T12:25:45.645Z,41.28
2018-03-28T12:26:45.646Z,41.23
2018-03-28T12:27:45.669Z,41.25
2018-03-28T12:28:45.682Z,41.12
2018-03-28T12:29:45.866Z,41.22
2018-03-28T12:30:45.657Z,41.25
2018-03-28T12:31:45.696Z,41.22
2018-03-28T12:32:45.640Z,41.61
2018-03-28T12:33:45.658Z,41.41
2018-03-28T12:34:45.656Z,41.47
2018-03-28T12:35:45.625Z,41.56
2018-03-28T12:36:46.117Z,41.54
2018-03-28T12:37:45.617Z,41.38
2018-03-28T12:38:45.630Z,42.4
2018-03-28T12:39:45.792Z,41.84
2018-03-28T12:40:45.640Z,41.88
2018-03-28T12:41:45.706Z,41.44
2018-03-28T12:42:45.649Z,42.03
2018-03-28T12:43:45.631Z,41.05
2018-03-28T12:44:45.660Z,40.81
2018-03-28T12:45:45.629Z,40.86
2018-03-28T12:46:45.668Z,40.71
2018-03-28T12:47:45.622Z,40.74
2018-03-28T12:48:45.775Z,40.91
2018-03-28T12:49:46.662Z,40.75
2018-03-28T12:50:45.690Z,40.78
2018-03-28T12:51:45.758Z,40.71
2018-03-28T12:52:45.656Z,40.69
2018-03-28T12:53:45.719Z,41.02
2018-03-28T12:54:45.741Z,40.85
2018-03-28T12:55:45.613Z,40.66